メインページ
METAR-TAF:

METAR-TAF

空港 :

ブカレスト, ルーマニア

アンリ・コアンダ国際空港

緯度: 44-33N, 経度: 026-06E, 海抜: 95m

現時点の気象観測

当レポートは31分前の05:30(UTC)に作成
変向風 2kt
気温 21°C
湿度 56%
気圧 1016 hPa
視程: 6000m

METAR: LROP 200530Z VRB02KT 6000 NSC 21/12 Q1016 NOSIG

時間: 09:01 (06:01 UTC)

予報

当レポートは1時間1分前の05:00(UTC)に作成
予報は20日の 06時(UTC)から 21日の 06時(UTC)まで有効
東/北東の風 7kt
視程10km以上
1,500メートル以下は雲なし、積乱雲なし

TAF: LROP 200500Z 2006/2106 06007KT CAVOK

4,000以上の空港の気象観測と天気予報(METAR報とTAF報)

利用可能な観測所は地図上に黄色い丸と赤い丸で示す。

丸の上にカーソルを重ねると観測所名を参照できる。

次にクリックすると気象観測と天気予報を参照できる。

マップの切り替え:黒色「×」印の緑ボタンをクリックして拡大、「-」印の緑ボタンをクリックして縮小、緑色の三角印をクリックして隣りの地図に切り替え


METAR-TAF: